createdAt,value
2017-11-08T00:01:03.093Z,5.49
2017-11-08T00:02:11.708Z,5.54
2017-11-08T00:03:20.340Z,5.54
2017-11-08T00:04:28.955Z,5.52
2017-11-08T00:05:37.585Z,5.54
2017-11-08T00:06:46.208Z,5.62
2017-11-08T00:07:54.818Z,5.64
2017-11-08T00:09:03.443Z,5.61
2017-11-08T00:10:12.064Z,5.59
2017-11-08T00:11:21.024Z,5.65
2017-11-08T00:12:29.652Z,5.65
2017-11-08T00:13:38.272Z,5.64
2017-11-08T00:14:46.905Z,5.59
2017-11-08T00:15:55.858Z,5.64
2017-11-08T00:17:04.805Z,5.65
2017-11-08T00:18:13.430Z,5.64
2017-11-08T00:19:22.052Z,5.62
2017-11-08T00:20:30.684Z,5.67
2017-11-08T00:21:39.304Z,5.67
2017-11-08T00:22:47.923Z,5.72
2017-11-08T00:23:56.548Z,5.73
2017-11-08T00:25:05.170Z,5.73
2017-11-08T00:26:13.792Z,5.79
2017-11-08T00:27:22.415Z,5.74
2017-11-08T00:28:31.044Z,5.79
2017-11-08T00:29:39.991Z,5.74
2017-11-08T00:30:48.617Z,5.76
2017-11-08T00:31:57.241Z,5.79
2017-11-08T00:33:05.864Z,5.8
2017-11-08T00:34:14.485Z,5.79
2017-11-08T00:35:23.093Z,5.73
2017-11-08T00:36:31.720Z,5.81
2017-11-08T00:37:40.349Z,5.79
2017-11-08T00:38:48.959Z,5.83
2017-11-08T00:39:57.588Z,5.76
2017-11-08T00:41:06.210Z,5.83
2017-11-08T00:42:14.835Z,5.79
2017-11-08T00:43:23.459Z,5.81
2017-11-08T00:44:32.074Z,5.83
2017-11-08T00:45:40.699Z,5.77
2017-11-08T00:46:49.322Z,5.81
2017-11-08T00:47:57.950Z,5.79
2017-11-08T00:49:06.573Z,5.77
2017-11-08T00:50:15.189Z,5.74
2017-11-08T00:51:23.815Z,5.7
2017-11-08T00:52:32.438Z,5.77
2017-11-08T00:53:41.054Z,5.74
2017-11-08T00:54:49.681Z,5.74
2017-11-08T00:55:58.308Z,5.7
2017-11-08T00:57:06.919Z,5.76
2017-11-08T00:58:15.544Z,5.77
2017-11-08T00:59:24.168Z,5.79
2017-11-08T01:00:32.787Z,5.8
2017-11-08T01:01:41.419Z,5.77
2017-11-08T01:02:50.038Z,5.74
2017-11-08T01:03:58.665Z,5.83
2017-11-08T01:05:07.291Z,5.77
2017-11-08T01:06:15.907Z,5.8
2017-11-08T01:07:24.534Z,5.83
2017-11-08T01:08:33.166Z,5.8
2017-11-08T01:09:41.780Z,5.81
2017-11-08T01:10:50.744Z,5.84
2017-11-08T01:11:59.361Z,5.81
2017-11-08T01:13:07.986Z,5.83
2017-11-08T01:14:16.610Z,5.91
2017-11-08T01:15:25.226Z,5.91
2017-11-08T01:16:33.856Z,5.9
2017-11-08T01:17:42.476Z,5.91
2017-11-08T01:18:51.101Z,5.9
2017-11-08T01:19:59.729Z,5.91
2017-11-08T01:21:08.344Z,5.83
2017-11-08T01:22:16.965Z,5.83
2017-11-08T01:23:25.593Z,5.94
2017-11-08T01:24:34.209Z,5.92
2017-11-08T01:25:42.831Z,5.92
2017-11-08T01:26:51.454Z,5.92
2017-11-08T01:28:00.073Z,5.94
2017-11-08T01:29:08.692Z,6.01
2017-11-08T01:30:17.324Z,6.02
2017-11-08T01:31:25.944Z,5.94
2017-11-08T01:32:34.565Z,5.97
2017-11-08T01:33:43.180Z,5.98
2017-11-08T01:34:51.810Z,6.01
2017-11-08T01:36:00.766Z,5.99
2017-11-08T01:37:09.720Z,5.95
2017-11-08T01:38:18.339Z,5.99
2017-11-08T01:39:26.968Z,5.99
2017-11-08T01:40:35.590Z,5.98
2017-11-08T01:41:44.210Z,6.01
2017-11-08T01:42:53.174Z,5.99
2017-11-08T01:44:01.796Z,5.97
2017-11-08T01:45:10.416Z,5.98
2017-11-08T01:46:19.036Z,5.97
2017-11-08T01:47:27.657Z,5.97
2017-11-08T01:48:36.291Z,5.98
2017-11-08T01:49:44.907Z,5.97
2017-11-08T01:50:53.530Z,5.99
2017-11-08T01:52:02.159Z,5.97
2017-11-08T01:53:10.784Z,6.02
2017-11-08T01:54:19.398Z,6.07
2017-11-08T01:55:28.019Z,6.01
2017-11-08T01:56:36.645Z,6.05
2017-11-08T01:57:45.259Z,6.02
2017-11-08T01:58:53.883Z,6.06
2017-11-08T02:00:02.510Z,6.02
2017-11-08T02:01:11.135Z,6.07
2017-11-08T02:02:19.772Z,6.05
2017-11-08T02:03:28.375Z,6.1
2017-11-08T02:04:37.004Z,6.16
2017-11-08T02:05:45.626Z,6.15
2017-11-08T02:06:54.237Z,6.15
2017-11-08T02:08:03.191Z,6.12
2017-11-08T02:09:11.810Z,6.09
2017-11-08T02:10:20.440Z,6.12
2017-11-08T02:11:29.058Z,6.09
2017-11-08T02:12:37.678Z,6.09
2017-11-08T02:13:46.302Z,6.07
2017-11-08T02:14:54.919Z,6.1
2017-11-08T02:16:03.551Z,6.09
2017-11-08T02:17:12.176Z,6.12
2017-11-08T02:18:20.790Z,6.12
2017-11-08T02:19:29.419Z,6.1
2017-11-08T02:20:38.040Z,6.07
2017-11-08T02:21:46.660Z,6.1
2017-11-08T02:22:55.284Z,6.16
2017-11-08T02:24:03.909Z,6.13
2017-11-08T02:25:12.529Z,6.12
2017-11-08T02:26:21.482Z,6.15
2017-11-08T02:27:30.105Z,6.2
2017-11-08T02:28:38.717Z,6.17
2017-11-08T02:29:47.349Z,6.13
2017-11-08T02:30:55.969Z,6.26
2017-11-08T02:32:04.597Z,6.15
2017-11-08T02:33:13.549Z,6.13
2017-11-08T02:34:22.169Z,6.16
2017-11-08T02:35:30.791Z,6.16
2017-11-08T02:36:39.745Z,6.12
2017-11-08T02:37:48.360Z,6.17
2017-11-08T02:38:57.331Z,6.19
2017-11-08T02:40:06.304Z,6.22
2017-11-08T02:41:14.927Z,6.15
2017-11-08T02:42:23.530Z,6.25
2017-11-08T02:43:32.160Z,6.26
2017-11-08T02:44:40.780Z,6.28
2017-11-08T02:45:49.407Z,6.25
2017-11-08T02:46:58.024Z,6.2
2017-11-08T02:48:06.649Z,6.32
2017-11-08T02:49:15.273Z,6.2
2017-11-08T02:50:23.895Z,6.22
2017-11-08T02:51:32.856Z,6.25
2017-11-08T02:52:41.475Z,6.26
2017-11-08T02:53:50.095Z,6.34
2017-11-08T02:54:58.717Z,6.32
2017-11-08T02:56:07.692Z,6.28
2017-11-08T02:57:16.300Z,6.25
2017-11-08T02:58:25.251Z,6.31
2017-11-08T02:59:33.868Z,6.26
2017-11-08T03:00:42.485Z,6.25
2017-11-08T03:01:51.115Z,6.34
2017-11-08T03:02:59.740Z,6.28
2017-11-08T03:04:08.358Z,6.29
2017-11-08T03:05:16.986Z,6.34
2017-11-08T03:06:25.604Z,6.25
2017-11-08T03:07:34.227Z,6.32
2017-11-08T03:08:43.180Z,6.34
2017-11-08T03:09:51.800Z,6.34
2017-11-08T03:11:00.765Z,6.34
2017-11-08T03:12:09.383Z,6.32
2017-11-08T03:13:18.006Z,6.32
2017-11-08T03:14:26.620Z,6.32
2017-11-08T03:15:35.247Z,6.32
2017-11-08T03:16:43.870Z,6.32
2017-11-08T03:17:52.492Z,6.34
2017-11-08T03:19:01.442Z,6.35
2017-11-08T03:20:10.072Z,6.35
2017-11-08T03:21:18.695Z,6.35
2017-11-08T03:22:27.313Z,6.32
2017-11-08T03:23:35.941Z,6.36
2017-11-08T03:24:44.562Z,6.32
2017-11-08T03:25:53.514Z,6.38
2017-11-08T03:27:02.471Z,6.34
2017-11-08T03:28:11.092Z,6.35
2017-11-08T03:29:19.712Z,6.34
2017-11-08T03:30:28.330Z,6.36
2017-11-08T03:31:36.951Z,6.36
2017-11-08T03:32:45.580Z,6.35
2017-11-08T03:33:54.201Z,6.44
2017-11-08T03:35:03.147Z,6.38
2017-11-08T03:36:11.775Z,6.26
2017-11-08T03:37:20.399Z,6.36
2017-11-08T03:38:29.014Z,6.38
2017-11-08T03:39:37.640Z,6.38
2017-11-08T03:40:46.267Z,6.41
2017-11-08T03:41:54.882Z,6.38
2017-11-08T03:43:03.512Z,6.35
2017-11-08T03:44:12.130Z,6.35
2017-11-08T03:45:20.753Z,6.47
2017-11-08T03:46:29.377Z,6.41
2017-11-08T03:47:37.993Z,6.38
2017-11-08T03:48:46.619Z,6.43
2017-11-08T03:49:55.241Z,6.43
2017-11-08T03:51:04.188Z,6.43
2017-11-08T03:52:12.812Z,6.35
2017-11-08T03:53:21.437Z,6.39
2017-11-08T03:54:30.061Z,6.36
2017-11-08T03:55:38.674Z,6.41
2017-11-08T03:56:47.303Z,6.44
2017-11-08T03:57:55.930Z,6.36
2017-11-08T03:59:04.550Z,6.38
2017-11-08T04:00:13.164Z,6.36
2017-11-08T04:01:21.791Z,6.44
2017-11-08T04:02:30.418Z,6.41
2017-11-08T04:03:39.369Z,6.43
2017-11-08T04:04:48.000Z,6.57
2017-11-08T04:05:56.619Z,6.44
2017-11-08T04:07:05.241Z,6.43
2017-11-08T04:08:13.872Z,6.43
2017-11-08T04:09:22.486Z,6.43
2017-11-08T04:10:31.111Z,6.46
2017-11-08T04:11:39.734Z,6.41
2017-11-08T04:12:48.357Z,6.43
2017-11-08T04:13:56.984Z,6.43
2017-11-08T04:15:05.597Z,6.36
2017-11-08T04:16:14.222Z,6.5
2017-11-08T04:17:22.844Z,6.52
2017-11-08T04:18:31.463Z,6.41
2017-11-08T04:19:40.089Z,6.43
2017-11-08T04:20:49.040Z,6.47
2017-11-08T04:21:57.664Z,6.44
2017-11-08T04:23:06.287Z,6.49
2017-11-08T04:24:14.919Z,6.44
2017-11-08T04:25:23.538Z,6.46
2017-11-08T04:26:32.164Z,6.49
2017-11-08T04:27:40.777Z,6.57
2017-11-08T04:28:49.402Z,6.43
2017-11-08T04:29:58.359Z,6.41
2017-11-08T04:31:06.983Z,6.46
2017-11-08T04:32:15.601Z,6.49
2017-11-08T04:33:24.229Z,6.44
2017-11-08T04:34:32.847Z,6.5
2017-11-08T04:35:41.472Z,6.43
2017-11-08T04:36:50.088Z,6.52
2017-11-08T04:37:58.712Z,6.53
2017-11-08T04:39:07.335Z,6.44
2017-11-08T04:40:15.951Z,6.5
2017-11-08T04:41:24.585Z,6.53
2017-11-08T04:42:33.195Z,6.53
2017-11-08T04:43:41.822Z,6.59
2017-11-08T04:44:50.787Z,6.56
2017-11-08T04:45:59.401Z,6.56
2017-11-08T04:47:08.022Z,6.54
2017-11-08T04:48:16.649Z,6.49
2017-11-08T04:49:25.271Z,6.56
2017-11-08T04:50:33.889Z,6.57
2017-11-08T04:51:42.518Z,6.49
2017-11-08T04:52:51.140Z,6.57
2017-11-08T04:54:00.086Z,6.57
2017-11-08T04:55:08.714Z,6.54
2017-11-08T04:56:17.330Z,6.54
2017-11-08T04:57:25.956Z,6.57
2017-11-08T04:58:34.574Z,6.53
2017-11-08T04:59:43.194Z,6.56
2017-11-08T05:00:51.822Z,6.6
2017-11-08T05:02:00.443Z,6.59
2017-11-08T05:03:09.068Z,6.52
2017-11-08T05:04:17.683Z,6.56
2017-11-08T05:05:26.635Z,6.56
2017-11-08T05:06:35.264Z,6.52
2017-11-08T05:07:43.883Z,6.52
2017-11-08T05:08:52.835Z,6.53
2017-11-08T05:10:01.803Z,6.47
2017-11-08T05:11:10.420Z,6.59
2017-11-08T05:12:19.046Z,6.57
2017-11-08T05:13:27.660Z,6.52
2017-11-08T05:14:36.283Z,6.59
2017-11-08T05:15:44.908Z,6.53
2017-11-08T05:16:53.859Z,6.6
2017-11-08T05:18:02.480Z,6.54
2017-11-08T05:19:11.109Z,6.56
2017-11-08T05:20:19.731Z,6.57
2017-11-08T05:21:28.687Z,6.62
2017-11-08T05:22:37.313Z,6.56
2017-11-08T05:23:45.939Z,6.64
2017-11-08T05:24:54.557Z,6.57
2017-11-08T05:26:03.180Z,6.64
2017-11-08T05:27:12.122Z,6.6
2017-11-08T05:28:20.753Z,6.56
2017-11-08T05:29:29.375Z,6.64
2017-11-08T05:30:38.325Z,6.65
2017-11-08T05:31:46.956Z,6.6
2017-11-08T05:32:55.586Z,6.64
2017-11-08T05:34:04.208Z,6.62
2017-11-08T05:35:12.830Z,6.6
2017-11-08T05:36:21.458Z,6.7
2017-11-08T05:37:30.072Z,6.62
2017-11-08T05:38:38.701Z,6.67
2017-11-08T05:39:47.319Z,6.65
2017-11-08T05:40:56.643Z,6.7
2017-11-08T05:42:05.260Z,6.71
2017-11-08T05:43:13.886Z,6.68
2017-11-08T05:44:22.510Z,6.74
2017-11-08T05:45:31.138Z,6.78
2017-11-08T05:46:39.756Z,6.78
2017-11-08T05:47:48.378Z,6.71
2017-11-08T05:48:57.008Z,6.75
2017-11-08T05:50:05.632Z,6.71
2017-11-08T05:51:14.251Z,6.71
2017-11-08T05:52:22.876Z,6.67
2017-11-08T05:53:31.497Z,6.71
2017-11-08T05:54:40.124Z,6.67
2017-11-08T05:55:49.070Z,6.68
2017-11-08T05:56:57.693Z,6.77
2017-11-08T05:58:06.321Z,6.7
2017-11-08T05:59:14.935Z,6.67
2017-11-08T06:00:23.560Z,6.72
2017-11-08T06:01:32.189Z,6.72
2017-11-08T06:02:40.810Z,6.74
2017-11-08T06:03:49.445Z,6.75
2017-11-08T06:04:58.056Z,6.71
2017-11-08T06:06:06.680Z,6.83
2017-11-08T06:07:15.308Z,6.77
2017-11-08T06:08:23.925Z,6.71
2017-11-08T06:09:32.554Z,6.75
2017-11-08T06:10:41.171Z,6.85
2017-11-08T06:11:49.797Z,6.83
2017-11-08T06:12:58.419Z,6.75
2017-11-08T06:14:07.038Z,6.8
2017-11-08T06:15:15.664Z,6.74
2017-11-08T06:16:24.289Z,6.78
2017-11-08T06:17:32.903Z,6.78
2017-11-08T06:18:41.529Z,6.8
2017-11-08T06:19:50.156Z,6.74
2017-11-08T06:20:58.777Z,6.82
2017-11-08T06:22:07.396Z,6.72
2017-11-08T06:23:16.027Z,6.72
2017-11-08T06:24:24.648Z,6.71
2017-11-08T06:25:33.276Z,6.72
2017-11-08T06:26:41.891Z,6.7
2017-11-08T06:27:50.518Z,6.74
2017-11-08T06:28:59.139Z,6.75
2017-11-08T06:30:07.768Z,6.75
2017-11-08T06:31:16.387Z,6.68
2017-11-08T06:32:25.017Z,6.72
2017-11-08T06:33:33.638Z,6.67
2017-11-08T06:34:42.258Z,6.67
2017-11-08T06:35:50.887Z,6.64
2017-11-08T06:36:59.508Z,6.67
2017-11-08T06:38:08.127Z,6.67
2017-11-08T06:39:16.746Z,6.62
2017-11-08T06:40:25.367Z,6.65
2017-11-08T06:41:34.006Z,6.65
2017-11-08T06:42:42.619Z,6.72
2017-11-08T06:43:51.569Z,6.68
2017-11-08T06:45:00.196Z,6.78
2017-11-08T06:46:08.820Z,6.75
2017-11-08T06:47:17.441Z,6.67
2017-11-08T06:48:26.066Z,6.74
2017-11-08T06:49:34.689Z,6.77
2017-11-08T06:50:43.344Z,6.8
2017-11-08T06:51:52.243Z,6.82
2017-11-08T06:53:01.429Z,6.85
2017-11-08T06:54:10.068Z,6.82
2017-11-08T06:55:18.688Z,6.85
2017-11-08T06:56:27.306Z,6.82
2017-11-08T06:57:35.931Z,6.85
2017-11-08T06:58:44.558Z,6.77
2017-11-08T06:59:53.182Z,6.93
2017-11-08T07:01:01.798Z,6.8
2017-11-08T07:02:10.744Z,6.95
2017-11-08T07:03:19.372Z,6.89
2017-11-08T07:04:28.000Z,6.92
2017-11-08T07:05:36.616Z,6.9
2017-11-08T07:06:45.573Z,6.92
2017-11-08T07:07:54.191Z,6.93
2017-11-08T07:09:02.820Z,6.95
2017-11-08T07:10:11.445Z,6.93
2017-11-08T07:11:20.065Z,6.87
2017-11-08T07:12:28.695Z,6.92
2017-11-08T07:13:37.642Z,6.92
2017-11-08T07:14:46.262Z,6.92
2017-11-08T07:15:54.889Z,7.05
2017-11-08T07:17:03.514Z,6.89
2017-11-08T07:18:12.131Z,6.89
2017-11-08T07:19:20.757Z,7.01
2017-11-08T07:20:29.377Z,7.03
2017-11-08T07:21:37.995Z,7.04
2017-11-08T07:22:46.628Z,7.07
2017-11-08T07:23:55.246Z,7.04
2017-11-08T07:25:03.872Z,7.05
2017-11-08T07:26:12.502Z,7.05
2017-11-08T07:27:21.119Z,7.05
2017-11-08T07:28:29.748Z,7.07
2017-11-08T07:29:38.369Z,7.08
2017-11-08T07:30:46.983Z,7.1
2017-11-08T07:31:55.606Z,7.07
2017-11-08T07:33:04.233Z,7.13
2017-11-08T07:34:12.851Z,7.15
2017-11-08T07:35:21.473Z,7.19
2017-11-08T07:36:30.106Z,7.14
2017-11-08T07:37:38.726Z,7.23
2017-11-08T07:38:47.350Z,7.15
2017-11-08T07:39:55.961Z,7.15
2017-11-08T07:41:04.589Z,7.13
2017-11-08T07:42:13.213Z,7.18
2017-11-08T07:43:21.837Z,7.21
2017-11-08T07:44:30.453Z,7.18
2017-11-08T07:45:39.088Z,7.26
2017-11-08T07:46:47.710Z,7.22
2017-11-08T07:47:56.333Z,7.33
2017-11-08T07:49:04.964Z,7.23
2017-11-08T07:50:13.583Z,7.23
2017-11-08T07:51:22.550Z,7.28
2017-11-08T07:52:31.170Z,7.29
2017-11-08T07:53:39.792Z,7.25
2017-11-08T07:54:48.423Z,7.28
2017-11-08T07:55:57.046Z,7.31
2017-11-08T07:57:05.667Z,7.26
2017-11-08T07:58:14.298Z,7.32
2017-11-08T07:59:22.916Z,7.25
2017-11-08T08:00:31.545Z,7.23
2017-11-08T08:01:40.164Z,7.26
2017-11-08T08:02:48.780Z,7.33
2017-11-08T08:03:57.410Z,7.22
2017-11-08T08:05:06.031Z,7.28
2017-11-08T08:06:14.658Z,7.25
2017-11-08T08:07:23.276Z,7.26
2017-11-08T08:08:31.902Z,7.26
2017-11-08T08:09:40.529Z,7.28
2017-11-08T08:10:49.159Z,7.4
2017-11-08T08:11:57.778Z,7.28
2017-11-08T08:13:06.408Z,7.37
2017-11-08T08:14:15.477Z,7.37
2017-11-08T08:15:24.765Z,7.29
2017-11-08T08:16:33.774Z,7.29
2017-11-08T08:17:42.562Z,7.32
2017-11-08T08:18:51.341Z,7.36
2017-11-08T08:20:00.474Z,7.41
2017-11-08T08:21:09.788Z,7.43
2017-11-08T08:22:19.298Z,7.41
2017-11-08T08:23:28.541Z,7.37
2017-11-08T08:24:37.525Z,7.39
2017-11-08T08:25:46.160Z,7.46
2017-11-08T08:26:54.782Z,7.37
2017-11-08T08:28:03.740Z,7.4
2017-11-08T08:29:12.363Z,7.4
2017-11-08T08:30:20.990Z,7.41
2017-11-08T08:31:29.620Z,7.37
2017-11-08T08:32:38.241Z,7.46
2017-11-08T08:33:46.867Z,7.48
2017-11-08T08:34:55.497Z,7.41
2017-11-08T08:36:04.111Z,7.46
2017-11-08T08:37:12.737Z,7.41
2017-11-08T08:38:21.434Z,7.5
2017-11-08T08:39:30.066Z,7.47
2017-11-08T08:40:39.037Z,7.48
2017-11-08T08:41:47.659Z,7.44
2017-11-08T08:42:56.282Z,7.47
2017-11-08T08:44:04.911Z,7.44
2017-11-08T08:45:13.538Z,7.48
2017-11-08T08:46:22.507Z,7.44
2017-11-08T08:47:31.114Z,7.39
2017-11-08T08:48:39.738Z,7.41
2017-11-08T08:49:48.375Z,7.44
2017-11-08T08:50:57.003Z,7.51
2017-11-08T08:52:05.625Z,7.47
2017-11-08T08:53:14.258Z,7.46
2017-11-08T08:54:22.879Z,7.48
2017-11-08T08:55:31.841Z,7.46
2017-11-08T08:56:40.463Z,7.46
2017-11-08T08:57:49.083Z,7.39
2017-11-08T08:58:57.717Z,7.47
2017-11-08T09:00:06.334Z,7.51
2017-11-08T09:01:14.960Z,7.61
2017-11-08T09:02:23.927Z,7.5
2017-11-08T09:03:32.552Z,7.44
2017-11-08T09:04:41.501Z,7.61
2017-11-08T09:05:50.119Z,7.56
2017-11-08T09:06:58.740Z,7.46
2017-11-08T09:08:07.368Z,7.41
2017-11-08T09:09:15.988Z,7.47
2017-11-08T09:10:24.611Z,7.46
2017-11-08T09:11:33.246Z,7.48
2017-11-08T09:12:41.866Z,7.46
2017-11-08T09:13:50.489Z,7.58
2017-11-08T09:14:59.118Z,7.44
2017-11-08T09:16:07.743Z,7.55
2017-11-08T09:17:16.360Z,7.51
2017-11-08T09:18:24.984Z,7.58
2017-11-08T09:19:33.609Z,7.59
2017-11-08T09:20:42.241Z,7.58
2017-11-08T09:21:50.860Z,7.67
2017-11-08T09:22:59.484Z,7.69
2017-11-08T09:24:08.116Z,7.64
2017-11-08T09:25:16.740Z,7.64
2017-11-08T09:26:25.354Z,7.62
2017-11-08T09:27:33.980Z,7.61
2017-11-08T09:28:42.617Z,7.58
2017-11-08T09:29:51.238Z,7.56
2017-11-08T09:30:59.864Z,7.67
2017-11-08T09:32:08.493Z,7.72
2017-11-08T09:33:17.113Z,7.62
2017-11-08T09:34:25.744Z,7.67
2017-11-08T09:35:34.360Z,7.72
2017-11-08T09:36:42.989Z,7.75
2017-11-08T09:37:51.625Z,7.72
2017-11-08T09:39:00.240Z,7.75
2017-11-08T09:40:08.866Z,7.78
2017-11-08T09:41:17.497Z,7.75
2017-11-08T09:42:26.116Z,7.74
2017-11-08T09:43:34.734Z,7.77
2017-11-08T09:44:44.032Z,7.7
2017-11-08T09:45:52.653Z,7.74
2017-11-08T09:47:01.278Z,7.7
2017-11-08T09:48:09.910Z,7.8
2017-11-08T09:49:18.527Z,7.78
2017-11-08T09:50:27.152Z,7.87
2017-11-08T09:51:35.772Z,7.7
2017-11-08T09:52:44.399Z,7.78
2017-11-08T09:53:53.357Z,7.8
2017-11-08T09:55:01.979Z,7.81
2017-11-08T09:56:10.605Z,7.84
2017-11-08T09:57:19.222Z,7.75
2017-11-08T09:58:27.851Z,7.72
2017-11-08T09:59:36.806Z,7.77
2017-11-08T10:00:45.429Z,7.8
2017-11-08T10:01:54.047Z,7.85
2017-11-08T10:03:02.681Z,7.81
2017-11-08T10:04:11.303Z,7.91
2017-11-08T10:05:19.946Z,7.85
2017-11-08T10:06:28.549Z,7.85
2017-11-08T10:07:37.174Z,7.91
2017-11-08T10:08:45.800Z,7.9
2017-11-08T10:09:54.541Z,7.9
2017-11-08T10:11:03.044Z,7.9
2017-11-08T10:12:11.755Z,7.93
2017-11-08T10:13:20.295Z,7.93
2017-11-08T10:14:28.928Z,7.87
2017-11-08T10:15:37.566Z,7.88
2017-11-08T10:16:46.178Z,7.9
2017-11-08T10:17:54.799Z,7.93
2017-11-08T10:19:03.422Z,7.91
2017-11-08T10:20:12.043Z,7.99
2017-11-08T10:21:20.676Z,8.01
2017-11-08T10:22:29.299Z,8.02
2017-11-08T10:23:37.925Z,8.03
2017-11-08T10:24:46.554Z,8.06
2017-11-08T10:25:55.177Z,8.05
2017-11-08T10:27:03.803Z,8.06
2017-11-08T10:28:12.431Z,8.08
2017-11-08T10:29:21.065Z,8.11
2017-11-08T10:30:29.687Z,8.05
2017-11-08T10:31:38.318Z,8.02
2017-11-08T10:32:46.937Z,8.14
2017-11-08T10:33:55.578Z,8.16
2017-11-08T10:35:04.198Z,8.18
2017-11-08T10:36:12.818Z,8.18
2017-11-08T10:37:21.846Z,8.18
2017-11-08T10:38:30.475Z,8.2
2017-11-08T10:39:39.092Z,8.28
2017-11-08T10:40:47.718Z,8.23
2017-11-08T10:41:56.345Z,8.31
2017-11-08T10:43:04.930Z,8.27
2017-11-08T10:44:13.556Z,8.32
2017-11-08T10:45:22.181Z,8.34
2017-11-08T10:46:30.800Z,8.34
2017-11-08T10:47:39.432Z,8.32
2017-11-08T10:48:48.047Z,8.44
2017-11-08T10:49:56.675Z,8.46
2017-11-08T10:51:05.304Z,8.46
2017-11-08T10:52:13.925Z,8.32
2017-11-08T10:53:22.551Z,8.38
2017-11-08T10:54:31.179Z,8.41
2017-11-08T10:55:39.810Z,8.36
2017-11-08T10:56:48.436Z,8.46
2017-11-08T10:57:57.052Z,8.49
2017-11-08T10:59:05.678Z,8.53
2017-11-08T11:00:14.308Z,8.59
2017-11-08T11:01:22.926Z,8.57
2017-11-08T11:02:31.558Z,8.6
2017-11-08T11:03:40.177Z,8.71
2017-11-08T11:04:48.802Z,8.74
2017-11-08T11:05:57.766Z,8.72
2017-11-08T11:07:06.387Z,8.69
2017-11-08T11:08:15.016Z,8.74
2017-11-08T11:09:23.643Z,8.74
2017-11-08T11:10:32.261Z,8.78
2017-11-08T11:11:40.900Z,8.69
2017-11-08T11:12:49.867Z,8.75
2017-11-08T11:13:58.490Z,8.78
2017-11-08T11:15:07.113Z,8.77
2017-11-08T11:16:15.747Z,8.72
2017-11-08T11:17:24.696Z,8.72
2017-11-08T11:18:33.335Z,8.71
2017-11-08T11:19:41.946Z,8.68
2017-11-08T11:20:50.576Z,8.69
2017-11-08T11:21:59.543Z,8.77
2017-11-08T11:23:08.498Z,8.77
2017-11-08T11:24:17.120Z,8.74
2017-11-08T11:25:25.753Z,8.72
2017-11-08T11:26:34.730Z,8.72
2017-11-08T11:27:43.353Z,8.84
2017-11-08T11:28:51.985Z,8.81
2017-11-08T11:30:00.610Z,8.72
2017-11-08T11:31:09.234Z,8.77
2017-11-08T11:32:17.857Z,8.74
2017-11-08T11:33:26.481Z,8.75
2017-11-08T11:34:35.115Z,8.75
2017-11-08T11:35:43.739Z,8.77
2017-11-08T11:36:52.360Z,8.77
2017-11-08T11:38:01.003Z,8.87
2017-11-08T11:39:09.625Z,8.87
2017-11-08T11:40:18.253Z,8.78
2017-11-08T11:41:27.215Z,8.87
2017-11-08T11:42:35.849Z,8.82
2017-11-08T11:43:44.469Z,8.87
2017-11-08T11:44:53.096Z,8.87
2017-11-08T11:46:01.721Z,8.89
2017-11-08T11:47:10.358Z,8.95
2017-11-08T11:48:18.982Z,8.93
2017-11-08T11:49:27.606Z,9.02
2017-11-08T11:50:36.244Z,8.96
2017-11-08T11:51:44.865Z,8.99
2017-11-08T11:52:53.488Z,9
2017-11-08T11:54:02.109Z,9.08
2017-11-08T11:55:10.735Z,9.05
2017-11-08T11:56:19.370Z,9
2017-11-08T11:57:27.995Z,9.15
2017-11-08T11:58:36.616Z,9.08
2017-11-08T11:59:45.244Z,9.16
2017-11-08T12:00:53.861Z,9.12
2017-11-08T12:02:02.828Z,9.15
2017-11-08T12:03:11.459Z,9.15
2017-11-08T12:04:20.073Z,9.16
2017-11-08T12:05:28.707Z,9.24
2017-11-08T12:06:37.667Z,9.24
2017-11-08T12:07:46.296Z,9.3
2017-11-08T12:08:54.926Z,9.29
2017-11-08T12:10:03.553Z,9.19
2017-11-08T12:11:12.178Z,9.26
2017-11-08T12:12:21.138Z,9.29
2017-11-08T12:13:29.769Z,9.27
2017-11-08T12:14:38.385Z,9.26
2017-11-08T12:15:47.018Z,9.22
2017-11-08T12:16:55.644Z,9.21
2017-11-08T12:18:04.274Z,9.33
2017-11-08T12:19:13.229Z,9.34
2017-11-08T12:20:21.849Z,9.36
2017-11-08T12:21:30.480Z,9.45
2017-11-08T12:22:39.106Z,9.54
2017-11-08T12:23:47.730Z,9.44
2017-11-08T12:24:56.359Z,9.54
2017-11-08T12:26:04.990Z,9.45
2017-11-08T12:27:13.614Z,9.39
2017-11-08T12:28:22.237Z,9.44
2017-11-08T12:29:30.876Z,9.47
2017-11-08T12:30:39.828Z,9.42
2017-11-08T12:31:48.455Z,9.58
2017-11-08T12:32:57.074Z,9.47
2017-11-08T12:34:05.705Z,9.52
2017-11-08T12:35:14.338Z,9.56
2017-11-08T12:36:23.291Z,9.62
2017-11-08T12:37:31.914Z,9.56
2017-11-08T12:38:40.543Z,9.63
2017-11-08T12:39:49.168Z,9.7
2017-11-08T12:40:57.791Z,9.64
2017-11-08T12:42:06.427Z,9.74
2017-11-08T12:43:15.056Z,9.74
2017-11-08T12:44:23.677Z,9.73
2017-11-08T12:45:32.303Z,9.76
2017-11-08T12:46:40.933Z,9.77
2017-11-08T12:47:49.567Z,9.82
2017-11-08T12:48:58.190Z,9.74
2017-11-08T12:50:06.813Z,9.72
2017-11-08T12:51:15.451Z,9.73
2017-11-08T12:52:24.073Z,9.77
2017-11-08T12:53:32.701Z,9.76
2017-11-08T12:54:41.327Z,9.67
2017-11-08T12:55:49.946Z,9.74
2017-11-08T12:56:58.583Z,9.85
2017-11-08T12:58:07.544Z,9.73
2017-11-08T12:59:16.173Z,9.63
2017-11-08T13:00:24.792Z,9.63
2017-11-08T13:01:33.436Z,9.66
2017-11-08T13:02:42.063Z,9.63
2017-11-08T13:03:50.692Z,9.62
2017-11-08T13:04:59.312Z,9.66
2017-11-08T13:06:07.942Z,9.64
2017-11-08T13:07:16.566Z,9.62
2017-11-08T13:08:25.191Z,9.64
2017-11-08T13:09:33.820Z,9.67
2017-11-08T13:10:42.445Z,9.7
2017-11-08T13:11:51.072Z,9.67
2017-11-08T13:12:59.694Z,9.64
2017-11-08T13:14:08.315Z,9.63
2017-11-08T13:15:16.946Z,9.66
2017-11-08T13:16:25.575Z,9.63
2017-11-08T13:17:34.260Z,9.62
2017-11-08T13:18:42.924Z,9.63
2017-11-08T13:19:51.548Z,9.58
2017-11-08T13:21:00.175Z,9.59
2017-11-08T13:22:08.803Z,9.58
2017-11-08T13:23:17.435Z,9.63
2017-11-08T13:24:26.056Z,9.63
2017-11-08T13:25:34.693Z,9.62
2017-11-08T13:26:43.317Z,9.64
2017-11-08T13:27:51.934Z,9.63
2017-11-08T13:29:00.571Z,9.69
2017-11-08T13:30:09.196Z,9.73
2017-11-08T13:31:17.845Z,9.76
2017-11-08T13:32:26.458Z,9.73
2017-11-08T13:33:35.079Z,9.72
2017-11-08T13:34:43.711Z,9.72
2017-11-08T13:35:52.339Z,9.81
2017-11-08T13:37:00.972Z,9.82
2017-11-08T13:38:09.588Z,9.73
2017-11-08T13:39:18.217Z,9.8
2017-11-08T13:40:26.842Z,9.85
2017-11-08T13:41:35.466Z,9.81
2017-11-08T13:42:44.100Z,9.77
2017-11-08T13:43:52.729Z,9.77
2017-11-08T13:45:01.359Z,9.7
2017-11-08T13:46:09.972Z,9.8
2017-11-08T13:47:18.604Z,9.73
2017-11-08T13:48:27.234Z,9.73
2017-11-08T13:49:35.865Z,9.73
2017-11-08T13:50:44.491Z,9.63
2017-11-08T13:51:53.110Z,9.63
2017-11-08T13:53:01.737Z,9.67
2017-11-08T13:54:10.367Z,9.63
2017-11-08T13:55:18.988Z,9.63
2017-11-08T13:56:27.616Z,9.64
2017-11-08T13:57:36.245Z,9.62
2017-11-08T13:58:44.874Z,9.58
2017-11-08T13:59:53.511Z,9.47
2017-11-08T14:01:02.134Z,9.54
2017-11-08T14:02:10.762Z,9.49
2017-11-08T14:03:19.389Z,9.55
2017-11-08T14:04:28.019Z,9.55
2017-11-08T14:05:36.653Z,9.52
2017-11-08T14:06:45.279Z,9.55
2017-11-08T14:07:53.905Z,9.52
2017-11-08T14:09:02.523Z,9.45
2017-11-08T14:10:11.174Z,9.54
2017-11-08T14:11:20.129Z,9.54
2017-11-08T14:12:28.757Z,9.55
2017-11-08T14:13:37.734Z,9.59
2017-11-08T14:14:47.029Z,9.55
2017-11-08T14:15:55.663Z,9.55
2017-11-08T14:17:04.286Z,9.48
2017-11-08T14:18:13.272Z,9.52
2017-11-08T14:19:21.904Z,9.47
2017-11-08T14:20:30.529Z,9.45
2017-11-08T14:21:39.152Z,9.54
2017-11-08T14:22:48.126Z,9.55
2017-11-08T14:23:56.746Z,9.51
2017-11-08T14:25:05.371Z,9.47
2017-11-08T14:26:14.348Z,9.42
2017-11-08T14:27:22.964Z,9.52
2017-11-08T14:28:31.606Z,9.45
2017-11-08T14:29:40.558Z,9.51
2017-11-08T14:30:49.183Z,9.44
2017-11-08T14:31:57.855Z,9.4
2017-11-08T14:33:06.481Z,9.49
2017-11-08T14:34:15.112Z,9.47
2017-11-08T14:35:23.735Z,9.48
2017-11-08T14:36:32.364Z,9.44
2017-11-08T14:37:40.987Z,9.48
2017-11-08T14:38:49.617Z,9.42
2017-11-08T14:39:58.246Z,9.49
2017-11-08T14:41:06.864Z,9.49
2017-11-08T14:42:15.498Z,9.44
2017-11-08T14:43:24.145Z,9.44
2017-11-08T14:44:32.760Z,9.45
2017-11-08T14:45:41.390Z,9.4
2017-11-08T14:46:50.015Z,9.47
2017-11-08T14:47:58.973Z,9.47
2017-11-08T14:49:07.601Z,9.47
2017-11-08T14:50:16.234Z,9.36
2017-11-08T14:51:24.866Z,9.33
2017-11-08T14:52:33.487Z,9.36
2017-11-08T14:53:42.121Z,9.34
2017-11-08T14:54:50.747Z,9.29
2017-11-08T14:55:59.699Z,9.39
2017-11-08T14:57:08.330Z,9.31
2017-11-08T14:58:16.949Z,9.36
2017-11-08T14:59:25.580Z,9.29
2017-11-08T15:00:34.201Z,9.3
2017-11-08T15:01:43.161Z,9.27
2017-11-08T15:02:51.793Z,9.3
2017-11-08T15:04:00.755Z,9.27
2017-11-08T15:05:09.373Z,9.22
2017-11-08T15:06:18.003Z,9.24
2017-11-08T15:07:26.643Z,9.27
2017-11-08T15:08:35.589Z,9.27
2017-11-08T15:09:44.215Z,9.18
2017-11-08T15:10:52.845Z,9.29
2017-11-08T15:12:01.804Z,9.15
2017-11-08T15:13:10.435Z,9.19
2017-11-08T15:14:19.051Z,9.21
2017-11-08T15:15:27.677Z,9.29
2017-11-08T15:16:36.300Z,9.16